createdAt,value
2022-12-05T00:01:42.307Z,6.07
2022-12-05T00:04:11.985Z,5.92
2022-12-05T00:06:39.983Z,5.76
2022-12-05T00:09:08.210Z,5.73
2022-12-05T00:11:36.526Z,5.35
2022-12-05T00:14:03.291Z,5.54
2022-12-05T00:16:31.652Z,5.44
2022-12-05T00:19:02.718Z,5.57
2022-12-05T00:21:32.515Z,5.76
2022-12-05T00:23:59.826Z,5.95
2022-12-05T00:26:27.064Z,5.67
2022-12-05T00:28:54.508Z,5.76
2022-12-05T00:31:22.368Z,5.91
2022-12-05T00:33:49.257Z,5.99
2022-12-05T00:36:21.408Z,6.01
2022-12-05T00:38:48.429Z,6.25
2022-12-05T00:41:20.622Z,6.29
2022-12-05T00:43:47.329Z,6.39
2022-12-05T00:46:16.473Z,6.32
2022-12-05T00:48:43.493Z,6.33
2022-12-05T00:51:15.413Z,6.42
2022-12-05T00:53:42.684Z,6.40
2022-12-05T00:56:15.323Z,6.42
2022-12-05T00:58:42.318Z,6.55
2022-12-05T01:01:16.155Z,6.45
2022-12-05T01:03:43.775Z,6.41
2022-12-05T01:06:11.463Z,6.57
2022-12-05T01:08:39.134Z,6.43
2022-12-05T01:11:06.546Z,6.55
2022-12-05T01:13:33.709Z,6.56
2022-12-05T01:16:00.799Z,6.57
2022-12-05T01:18:28.335Z,6.67
2022-12-05T01:20:55.049Z,6.61
2022-12-05T01:23:21.826Z,6.60
2022-12-05T01:25:49.632Z,6.37
2022-12-05T01:28:17.056Z,6.20
2022-12-05T01:30:46.198Z,5.90
2022-12-05T01:33:12.939Z,5.79
2022-12-05T01:35:40.592Z,5.76
2022-12-05T01:38:07.274Z,5.75
2022-12-05T01:40:37.735Z,5.97
2022-12-05T01:43:06.216Z,5.74
2022-12-05T01:45:33.980Z,5.48
2022-12-05T01:48:04.247Z,5.61
2022-12-05T01:50:31.102Z,5.78
2022-12-05T01:52:58.296Z,5.55
2022-12-05T01:55:25.001Z,5.72
2022-12-05T01:57:51.674Z,5.34
2022-12-05T02:00:20.174Z,5.37
2022-12-05T02:02:51.437Z,5.60
2022-12-05T02:05:22.594Z,5.19
2022-12-05T02:07:49.491Z,4.85
2022-12-05T02:10:16.148Z,5.02
2022-12-05T02:12:43.753Z,4.61
2022-12-05T02:15:29.544Z,4.20
2022-12-05T02:18:39.592Z,4.33
2022-12-05T02:21:31.317Z,4.66
2022-12-05T02:24:19.991Z,4.51
2022-12-05T02:27:34.673Z,5.09
2022-12-05T02:30:32.995Z,4.96
2022-12-05T02:33:09.066Z,4.96
2022-12-05T02:35:46.001Z,4.83
2022-12-05T02:38:22.054Z,5.21
2022-12-05T02:40:57.540Z,4.22
2022-12-05T02:43:42.942Z,4.66
2022-12-05T02:46:20.114Z,4.89
2022-12-05T02:48:47.835Z,5.10
2022-12-05T02:51:17.802Z,5.00
2022-12-05T02:53:45.721Z,4.75
2022-12-05T02:56:12.790Z,4.93
2022-12-05T02:58:44.570Z,4.60
2022-12-05T03:01:11.185Z,4.85
2022-12-05T03:03:37.772Z,4.56
2022-12-05T03:06:07.393Z,4.82
2022-12-05T03:09:01.472Z,4.75
2022-12-05T03:11:34.092Z,4.91
2022-12-05T03:14:03.475Z,4.72
2022-12-05T03:16:43.566Z,5.61
2022-12-05T03:19:18.304Z,5.78
2022-12-05T03:22:01.371Z,5.91
2022-12-05T03:24:28.233Z,6.08
2022-12-05T03:27:06.995Z,5.96
2022-12-05T03:29:54.144Z,6.07
2022-12-05T03:32:37.312Z,6.05
2022-12-05T03:35:27.186Z,6.12
2022-12-05T03:38:01.551Z,6.31
2022-12-05T03:40:40.331Z,6.09
2022-12-05T03:43:10.556Z,6.27
2022-12-05T03:45:46.499Z,6.06
2022-12-05T03:48:18.611Z,6.03
2022-12-05T03:50:47.242Z,6.17
2022-12-05T03:53:21.525Z,6.16
2022-12-05T03:56:02.294Z,6.26
2022-12-05T03:58:52.384Z,6.26
2022-12-05T04:01:19.707Z,6.30
2022-12-05T04:03:56.662Z,6.29
2022-12-05T04:06:33.456Z,6.02
2022-12-05T04:09:03.550Z,6.18
2022-12-05T04:11:33.392Z,6.25
2022-12-05T04:14:05.490Z,6.28
2022-12-05T04:16:56.573Z,6.26
2022-12-05T04:19:55.534Z,6.08
2022-12-05T04:22:23.636Z,6.23
2022-12-05T04:25:09.526Z,6.48
2022-12-05T04:27:59.624Z,6.40
2022-12-05T04:30:32.324Z,6.35
2022-12-05T04:33:13.981Z,6.37
2022-12-05T04:35:50.969Z,6.38
2022-12-05T04:38:27.389Z,6.37
2022-12-05T04:41:05.508Z,6.52
2022-12-05T04:43:35.360Z,6.72
2022-12-05T04:46:04.290Z,6.90
2022-12-05T04:48:31.594Z,6.89
2022-12-05T04:50:58.848Z,6.70
2022-12-05T04:53:27.841Z,6.61
2022-12-05T04:55:56.190Z,6.51
2022-12-05T04:58:25.862Z,6.55
2022-12-05T05:00:56.482Z,6.63
2022-12-05T05:03:42.143Z,6.58
2022-12-05T05:06:10.997Z,6.59
2022-12-05T05:08:37.543Z,6.87
2022-12-05T05:11:12.206Z,6.74
2022-12-05T05:13:38.680Z,6.61
2022-12-05T05:16:05.808Z,6.60
2022-12-05T05:18:33.378Z,6.77
2022-12-05T05:21:00.044Z,6.75
2022-12-05T05:23:26.660Z,6.68
2022-12-05T05:25:56.636Z,6.76
2022-12-05T05:28:23.214Z,6.72
2022-12-05T05:30:49.816Z,6.83
2022-12-05T05:33:16.426Z,6.93
2022-12-05T05:35:43.100Z,6.79
2022-12-05T05:38:09.708Z,6.90
2022-12-05T05:40:37.256Z,6.72
2022-12-05T05:43:04.050Z,6.66
2022-12-05T05:45:30.674Z,6.64
2022-12-05T05:47:57.467Z,6.83
2022-12-05T05:50:26.051Z,6.68
2022-12-05T05:52:53.578Z,6.76
2022-12-05T05:55:22.725Z,6.64
2022-12-05T05:57:52.133Z,6.54
2022-12-05T06:00:19.088Z,6.51
2022-12-05T06:02:46.513Z,6.57
2022-12-05T06:05:13.579Z,6.69
2022-12-05T06:07:40.334Z,6.58
2022-12-05T06:10:12.868Z,6.72
2022-12-05T06:12:39.513Z,6.63
2022-12-05T06:15:06.874Z,6.67
2022-12-05T06:17:46.162Z,6.79
2022-12-05T06:20:15.158Z,6.68
2022-12-05T06:22:41.972Z,6.70
2022-12-05T06:25:09.339Z,6.73
2022-12-05T06:27:35.912Z,6.79
2022-12-05T06:30:03.087Z,6.90
2022-12-05T06:32:30.107Z,6.68
2022-12-05T06:34:57.040Z,6.69
2022-12-05T06:37:24.479Z,6.89
2022-12-05T06:39:52.071Z,6.79
2022-12-05T06:42:24.023Z,6.80
2022-12-05T06:44:54.324Z,6.75
2022-12-05T06:47:23.203Z,6.69
2022-12-05T06:49:49.765Z,6.09
2022-12-05T06:52:16.255Z,5.98
2022-12-05T06:54:42.942Z,6.34
2022-12-05T06:57:10.024Z,6.21
2022-12-05T06:59:36.542Z,6.39
2022-12-05T07:02:03.632Z,6.43
2022-12-05T07:04:30.230Z,6.49
2022-12-05T07:06:57.225Z,6.56
2022-12-05T07:09:45.714Z,6.60
2022-12-05T07:12:14.244Z,6.75
2022-12-05T07:14:49.638Z,6.72
2022-12-05T07:17:20.907Z,6.84
2022-12-05T07:19:49.319Z,7.03
2022-12-05T07:22:17.205Z,7.02
2022-12-05T07:24:44.814Z,6.92
2022-12-05T07:27:12.125Z,6.90
2022-12-05T07:29:38.814Z,6.77
2022-12-05T07:32:05.724Z,6.90
2022-12-05T07:34:32.523Z,6.77
2022-12-05T07:37:00.097Z,6.79
2022-12-05T07:39:26.859Z,6.82
2022-12-05T07:41:56.514Z,6.85
2022-12-05T07:44:25.413Z,6.95
2022-12-05T07:46:54.235Z,6.89
2022-12-05T07:49:21.227Z,6.90
2022-12-05T07:51:50.783Z,6.93
2022-12-05T07:54:20.396Z,7.05
2022-12-05T07:56:48.104Z,7.19
2022-12-05T07:59:14.850Z,7.10
2022-12-05T08:01:41.406Z,7.01
2022-12-05T08:04:13.512Z,7.09
2022-12-05T08:06:42.156Z,7.21
2022-12-05T08:09:09.163Z,7.24
2022-12-05T08:11:38.058Z,7.15
2022-12-05T08:14:06.377Z,7.32
2022-12-05T08:16:32.982Z,7.29
2022-12-05T08:19:05.627Z,7.35
2022-12-05T08:21:32.554Z,7.28
2022-12-05T08:23:59.287Z,7.33
2022-12-05T08:26:28.234Z,7.35
2022-12-05T08:29:08.233Z,7.09
2022-12-05T08:31:37.197Z,7.11
2022-12-05T08:34:03.826Z,7.20
2022-12-05T08:36:31.086Z,7.10
2022-12-05T08:38:59.515Z,7.23
2022-12-05T08:41:28.782Z,7.27
2022-12-05T08:43:56.926Z,7.40
2022-12-05T08:46:23.670Z,7.40
2022-12-05T08:48:50.695Z,7.61
2022-12-05T08:51:17.359Z,7.38
2022-12-05T08:53:45.013Z,7.29
2022-12-05T08:56:11.978Z,7.01
2022-12-05T08:58:39.087Z,6.73
2022-12-05T09:01:12.042Z,6.80
2022-12-05T09:03:43.339Z,7.01
2022-12-05T09:06:19.666Z,7.09
2022-12-05T09:08:46.725Z,7.18
2022-12-05T09:11:24.881Z,7.40
2022-12-05T09:13:53.228Z,7.42
2022-12-05T09:16:21.939Z,7.56
2022-12-05T09:18:50.082Z,7.67
2022-12-05T09:21:29.354Z,7.51
2022-12-05T09:23:57.734Z,7.79
2022-12-05T09:26:25.861Z,7.47
2022-12-05T09:28:52.619Z,7.41
2022-12-05T09:31:25.313Z,7.32
2022-12-05T09:33:52.253Z,7.52
2022-12-05T09:36:21.775Z,7.76
2022-12-05T09:38:48.965Z,7.45
2022-12-05T09:42:00.688Z,7.45
2022-12-05T09:44:45.266Z,7.36
2022-12-05T09:47:15.808Z,7.62
2022-12-05T09:49:47.885Z,7.49
2022-12-05T09:52:27.295Z,7.71
2022-12-05T09:54:54.647Z,7.90
2022-12-05T09:57:33.638Z,8.07
2022-12-05T10:00:01.873Z,8.31
2022-12-05T10:03:09.915Z,8.38
2022-12-05T10:05:42.910Z,8.41
2022-12-05T10:08:17.302Z,8.37
2022-12-05T10:10:57.368Z,8.32
2022-12-05T10:13:44.883Z,8.57
2022-12-05T10:16:14.865Z,8.57
2022-12-05T10:18:47.424Z,8.19
2022-12-05T10:21:24.092Z,8.07
2022-12-05T10:23:58.254Z,8.03
2022-12-05T10:26:32.888Z,8.12
2022-12-05T10:29:19.709Z,8.13
2022-12-05T10:31:48.209Z,8.09
2022-12-05T10:34:30.037Z,8.33
2022-12-05T10:37:10.736Z,8.27
2022-12-05T10:39:38.450Z,8.28
2022-12-05T10:42:07.402Z,8.44
2022-12-05T10:44:34.155Z,8.42
2022-12-05T10:47:01.829Z,8.39
2022-12-05T10:49:32.602Z,8.54
2022-12-05T10:52:00.695Z,8.50
2022-12-05T10:54:30.911Z,8.56
2022-12-05T10:56:57.926Z,8.70
2022-12-05T10:59:39.235Z,8.70
2022-12-05T11:02:21.390Z,8.59
2022-12-05T11:04:58.270Z,8.63
2022-12-05T11:07:48.685Z,8.70
2022-12-05T11:10:26.592Z,8.61
2022-12-05T11:13:02.146Z,8.67
2022-12-05T11:15:30.975Z,8.71
2022-12-05T11:18:17.281Z,8.78
2022-12-05T11:20:54.413Z,8.38
2022-12-05T11:23:32.363Z,8.56
2022-12-05T11:25:59.385Z,8.55
2022-12-05T11:28:33.524Z,8.93
2022-12-05T11:31:12.312Z,8.83
2022-12-05T11:33:39.424Z,9.06
2022-12-05T11:36:20.457Z,8.94
2022-12-05T11:39:05.649Z,8.53
2022-12-05T11:41:42.093Z,8.66
2022-12-05T11:44:43.264Z,8.83
2022-12-05T11:47:15.790Z,9.18
2022-12-05T11:50:13.733Z,9.45
2022-12-05T11:53:21.444Z,9.51
2022-12-05T11:56:15.912Z,9.58
2022-12-05T11:59:06.977Z,9.50
2022-12-05T12:02:08.804Z,9.50
2022-12-05T12:04:51.102Z,9.37
2022-12-05T12:07:29.984Z,9.11
2022-12-05T12:10:10.401Z,9.25
2022-12-05T12:12:54.318Z,9.50
2022-12-05T12:15:46.697Z,9.41
2022-12-05T12:18:46.216Z,9.21
2022-12-05T12:21:44.986Z,8.89
2022-12-05T12:24:30.865Z,8.87
2022-12-05T12:27:35.110Z,9.04
2022-12-05T12:30:21.682Z,8.67
2022-12-05T12:33:02.724Z,9.06
2022-12-05T12:35:30.835Z,8.98
2022-12-05T12:38:17.099Z,9.10
2022-12-05T12:40:50.517Z,9.00
2022-12-05T12:43:52.842Z,9.21
2022-12-05T12:46:42.712Z,9.24
2022-12-05T12:49:15.680Z,9.09
2022-12-05T12:51:52.894Z,9.32
2022-12-05T12:54:54.622Z,9.33
2022-12-05T12:57:38.807Z,9.40
2022-12-05T13:00:16.492Z,9.37
2022-12-05T13:02:47.504Z,9.56
2022-12-05T13:05:28.155Z,9.35
2022-12-05T13:08:19.269Z,9.30
2022-12-05T13:10:47.021Z,9.46
2022-12-05T13:13:20.008Z,9.42
2022-12-05T13:15:55.743Z,9.55
2022-12-05T13:18:24.944Z,9.47
2022-12-05T13:20:57.211Z,9.48
2022-12-05T13:23:29.661Z,9.69
2022-12-05T13:25:58.161Z,9.58
2022-12-05T13:28:31.609Z,9.36
2022-12-05T13:31:02.417Z,9.53
2022-12-05T13:33:49.259Z,9.59
2022-12-05T13:36:39.605Z,9.52
2022-12-05T13:39:35.345Z,9.53
2022-12-05T13:42:15.231Z,9.65
2022-12-05T13:44:46.189Z,9.33
2022-12-05T13:47:29.978Z,9.25
2022-12-05T13:50:30.453Z,9.36
2022-12-05T13:53:06.620Z,9.19
2022-12-05T13:55:36.767Z,9.39
2022-12-05T13:58:23.397Z,9.32
2022-12-05T14:00:51.457Z,8.97
2022-12-05T14:03:24.301Z,9.20
2022-12-05T14:05:53.251Z,9.20
2022-12-05T14:08:32.044Z,8.88
2022-12-05T14:11:06.754Z,9.17
2022-12-05T14:13:35.244Z,8.95
2022-12-05T14:16:23.516Z,9.02
2022-12-05T14:18:55.531Z,8.65
2022-12-05T14:21:21.982Z,8.78
2022-12-05T14:24:30.423Z,8.58
2022-12-05T14:27:15.565Z,8.78
2022-12-05T14:30:03.469Z,8.73
2022-12-05T14:32:35.878Z,8.62
2022-12-05T14:35:19.843Z,8.64
2022-12-05T14:37:56.697Z,8.61
2022-12-05T14:40:32.481Z,8.64
2022-12-05T14:43:30.543Z,8.50
2022-12-05T14:46:08.420Z,8.54
2022-12-05T14:48:41.206Z,8.65
2022-12-05T14:51:32.297Z,8.60
2022-12-05T14:54:10.420Z,8.40
2022-12-05T14:56:45.826Z,8.58
2022-12-05T14:59:29.050Z,8.49
2022-12-05T15:01:58.548Z,8.30
2022-12-05T15:04:49.075Z,8.48
2022-12-05T15:07:37.260Z,8.48
2022-12-05T15:10:15.475Z,8.42
2022-12-05T15:12:52.295Z,8.28
2022-12-05T15:16:02.610Z,8.27
2022-12-05T15:18:39.353Z,8.30
2022-12-05T15:21:10.450Z,8.38
2022-12-05T15:23:40.139Z,8.34
2022-12-05T15:26:45.625Z,8.35
2022-12-05T15:29:21.045Z,8.50
2022-12-05T15:32:16.017Z,8.31
2022-12-05T15:35:05.249Z,8.26
2022-12-05T15:37:46.579Z,8.24
2022-12-05T15:40:22.087Z,8.30
2022-12-05T15:42:50.085Z,8.22
2022-12-05T15:45:21.695Z,8.27
2022-12-05T15:47:54.405Z,8.29
2022-12-05T15:50:24.088Z,8.35
2022-12-05T15:53:01.053Z,8.34
2022-12-05T15:55:38.949Z,8.18
2022-12-05T15:58:23.997Z,7.99
2022-12-05T16:00:54.215Z,7.72
2022-12-05T16:03:28.580Z,7.78
2022-12-05T16:06:01.628Z,7.56
2022-12-05T16:08:35.691Z,7.57
2022-12-05T16:11:09.732Z,7.38
2022-12-05T16:13:48.557Z,7.01
2022-12-05T16:16:18.011Z,6.92
2022-12-05T16:18:58.074Z,6.89
2022-12-05T16:21:34.439Z,6.77
2022-12-05T16:24:22.680Z,6.73
2022-12-05T16:27:15.768Z,6.65
2022-12-05T16:29:43.145Z,6.69
2022-12-05T16:32:21.659Z,6.59
2022-12-05T16:34:48.753Z,6.53
2022-12-05T16:37:26.772Z,6.54
2022-12-05T16:39:54.412Z,6.73
2022-12-05T16:42:27.896Z,6.58
2022-12-05T16:45:03.122Z,6.75
2022-12-05T16:47:42.034Z,6.61
2022-12-05T16:50:22.480Z,6.52
2022-12-05T16:52:49.778Z,6.81
2022-12-05T16:55:17.048Z,6.82
2022-12-05T16:57:43.625Z,6.83
2022-12-05T17:00:16.591Z,6.88
2022-12-05T17:02:43.320Z,6.92
2022-12-05T17:05:14.155Z,7.06
2022-12-05T17:07:40.713Z,7.11
2022-12-05T17:10:08.478Z,7.24
2022-12-05T17:12:35.066Z,7.31
2022-12-05T17:15:02.004Z,7.31
2022-12-05T17:17:28.736Z,7.30
2022-12-05T17:19:55.343Z,7.38
2022-12-05T17:22:22.636Z,7.37
2022-12-05T17:24:49.569Z,7.54
2022-12-05T17:27:16.177Z,7.61
2022-12-05T17:29:42.840Z,7.34
2022-12-05T17:32:10.334Z,7.47
2022-12-05T17:34:36.954Z,7.53
2022-12-05T17:37:03.523Z,7.65
2022-12-05T17:39:30.068Z,7.51
2022-12-05T17:41:56.849Z,7.41
2022-12-05T17:44:23.661Z,7.54
2022-12-05T17:46:50.342Z,7.65
2022-12-05T17:49:18.342Z,7.79
2022-12-05T17:52:13.336Z,7.55
2022-12-05T17:54:31.643Z,7.63
2022-12-05T17:56:58.327Z,7.57
2022-12-05T17:59:24.895Z,7.53
2022-12-05T18:01:51.459Z,7.67
2022-12-05T18:04:22.864Z,7.43
2022-12-05T18:06:50.209Z,7.44
2022-12-05T18:09:16.802Z,7.63
2022-12-05T18:11:43.395Z,7.47
2022-12-05T18:14:10.398Z,7.36
2022-12-05T18:16:37.128Z,7.33
2022-12-05T18:19:03.874Z,7.50
2022-12-05T18:21:30.561Z,7.42
2022-12-05T18:23:57.206Z,7.51
2022-12-05T18:26:23.831Z,7.66
2022-12-05T18:28:51.604Z,7.66
2022-12-05T18:31:18.554Z,7.50
2022-12-05T18:33:46.311Z,7.51
2022-12-05T18:36:17.183Z,7.17
2022-12-05T18:38:49.949Z,7.30
2022-12-05T18:41:16.559Z,7.26
2022-12-05T18:43:46.467Z,7.19
2022-12-05T18:46:13.231Z,6.89
2022-12-05T18:48:43.728Z,6.88
2022-12-05T18:51:16.210Z,6.57
2022-12-05T18:53:51.359Z,6.54
2022-12-05T18:56:26.996Z,6.63
2022-12-05T18:59:08.631Z,6.36
2022-12-05T19:01:37.416Z,6.18
2022-12-05T19:04:06.391Z,5.98
2022-12-05T19:06:36.612Z,5.82
2022-12-05T19:09:09.022Z,5.78
2022-12-05T19:11:35.882Z,5.72
2022-12-05T19:14:04.267Z,5.71
2022-12-05T19:16:32.503Z,5.89
2022-12-05T19:19:01.049Z,5.84
2022-12-05T19:21:29.791Z,6.13
2022-12-05T19:23:57.475Z,6.08
2022-12-05T19:26:24.235Z,6.07
2022-12-05T19:28:51.104Z,5.91
2022-12-05T19:31:20.055Z,5.90
2022-12-05T19:33:49.666Z,5.96
2022-12-05T19:36:19.457Z,6.10
2022-12-05T19:38:48.578Z,6.19
2022-12-05T19:41:18.743Z,6.33
2022-12-05T19:43:45.583Z,6.64
2022-12-05T19:46:15.599Z,6.77
2022-12-05T19:48:43.005Z,6.85
2022-12-05T19:51:09.604Z,6.83
2022-12-05T19:53:38.201Z,6.68
2022-12-05T19:56:08.827Z,6.97
2022-12-05T19:58:36.224Z,6.80
2022-12-05T20:01:13.895Z,6.85
2022-12-05T20:03:41.208Z,7.02
2022-12-05T20:06:10.911Z,7.02
2022-12-05T20:08:38.942Z,6.83
2022-12-05T20:11:17.698Z,6.87
2022-12-05T20:13:47.447Z,6.76
2022-12-05T20:16:18.696Z,6.95
2022-12-05T20:18:45.927Z,7.04
2022-12-05T20:21:14.609Z,7.19
2022-12-05T20:23:41.269Z,6.93
2022-12-05T20:26:13.598Z,6.84
2022-12-05T20:28:40.463Z,6.81
2022-12-05T20:31:11.673Z,6.87
2022-12-05T20:33:38.817Z,6.84
2022-12-05T20:36:11.000Z,6.88
2022-12-05T20:38:37.846Z,6.78
2022-12-05T20:41:06.971Z,6.87
2022-12-05T20:43:33.648Z,6.88
2022-12-05T20:46:06.062Z,7.01
2022-12-05T20:48:33.764Z,6.82
2022-12-05T20:51:08.417Z,6.96
2022-12-05T20:53:36.842Z,6.95
2022-12-05T20:56:08.823Z,6.89
2022-12-05T20:58:36.124Z,6.82
2022-12-05T21:01:05.464Z,6.97
2022-12-05T21:03:32.748Z,7.02
2022-12-05T21:05:59.767Z,7.12
2022-12-05T21:08:26.302Z,7.08
2022-12-05T21:10:53.078Z,6.93
2022-12-05T21:13:19.887Z,6.92
2022-12-05T21:15:46.488Z,7.06
2022-12-05T21:18:13.087Z,6.98
2022-12-05T21:20:42.238Z,6.95
2022-12-05T21:23:09.492Z,6.78
2022-12-05T21:25:36.775Z,6.75
2022-12-05T21:28:03.386Z,6.86
2022-12-05T21:30:31.288Z,6.87
2022-12-05T21:32:57.942Z,6.78
2022-12-05T21:35:24.501Z,6.69
2022-12-05T21:37:51.092Z,6.54
2022-12-05T21:40:17.738Z,6.64
2022-12-05T21:42:44.369Z,6.66
2022-12-05T21:45:11.783Z,6.54
2022-12-05T21:47:38.467Z,6.55
2022-12-05T21:50:08.190Z,6.60
2022-12-05T21:52:41.071Z,6.76
2022-12-05T21:55:09.003Z,6.75
2022-12-05T21:57:39.007Z,6.58
2022-12-05T22:00:09.735Z,6.52
2022-12-05T22:02:36.636Z,6.46
2022-12-05T22:05:03.669Z,6.48
2022-12-05T22:07:30.606Z,6.53
2022-12-05T22:09:57.803Z,6.53
2022-12-05T22:12:24.789Z,6.62
2022-12-05T22:14:51.419Z,6.63
2022-12-05T22:17:17.989Z,6.56
2022-12-05T22:19:44.555Z,6.73
2022-12-05T22:22:16.221Z,6.79
2022-12-05T22:24:42.889Z,6.73
2022-12-05T22:27:09.518Z,6.77
2022-12-05T22:29:36.439Z,6.74
2022-12-05T22:32:02.962Z,6.56
2022-12-05T22:34:29.538Z,6.68
2022-12-05T22:36:56.058Z,6.61
2022-12-05T22:39:22.852Z,6.49
2022-12-05T22:41:49.429Z,6.73
2022-12-05T22:44:16.024Z,6.72
2022-12-05T22:46:42.673Z,6.58
2022-12-05T22:49:10.777Z,6.82
2022-12-05T22:51:38.118Z,6.86
2022-12-05T22:54:04.898Z,6.71
2022-12-05T22:56:31.522Z,6.72
2022-12-05T22:58:59.656Z,6.64
2022-12-05T23:01:32.147Z,6.50
2022-12-05T23:03:59.879Z,6.54
2022-12-05T23:06:27.526Z,6.72
2022-12-05T23:08:54.321Z,6.73
2022-12-05T23:11:21.042Z,6.68
2022-12-05T23:13:48.526Z,6.60
2022-12-05T23:16:21.971Z,6.67
2022-12-05T23:18:49.949Z,6.63
2022-12-05T23:21:22.803Z,6.64
2022-12-05T23:23:51.247Z,6.45
2022-12-05T23:26:19.128Z,6.56
2022-12-05T23:28:45.749Z,6.40
2022-12-05T23:31:13.008Z,6.21
2022-12-05T23:33:40.281Z,6.22
2022-12-05T23:36:08.040Z,6.19
2022-12-05T23:38:36.230Z,6.23
2022-12-05T23:41:12.918Z,6.10
2022-12-05T23:43:39.730Z,6.14
2022-12-05T23:46:08.614Z,6.01
2022-12-05T23:48:35.273Z,6.22
2022-12-05T23:51:14.152Z,6.12
2022-12-05T23:53:42.960Z,6.10
2022-12-05T23:56:13.758Z,6.12
2022-12-05T23:58:41.032Z,6.22
